createdAt,value
2018-04-22T00:00:12.766Z,2
2018-04-22T00:01:15.598Z,1.9
2018-04-22T00:02:18.104Z,2.6
2018-04-22T00:03:20.537Z,2
2018-04-22T00:04:22.978Z,1.6
2018-04-22T00:05:25.693Z,1.7
2018-04-22T00:06:28.136Z,2
2018-04-22T00:07:30.570Z,2.3
2018-04-22T00:08:33.009Z,1.9
2018-04-22T00:09:35.517Z,2
2018-04-22T00:10:38.322Z,2
2018-04-22T00:11:40.745Z,2.1
2018-04-22T00:12:43.483Z,2
2018-04-22T00:13:45.909Z,2.5
2018-04-22T00:14:48.356Z,2.4
2018-04-22T00:15:50.792Z,1.9
2018-04-22T00:16:54.025Z,2.2
2018-04-22T00:17:56.591Z,2.5
2018-04-22T00:18:59.116Z,2.3
2018-04-22T00:20:01.854Z,1.9
2018-04-22T00:21:04.294Z,2
2018-04-22T00:22:07.310Z,1.8
2018-04-22T00:23:09.750Z,2.1
2018-04-22T00:24:12.184Z,1.8
2018-04-22T00:25:14.626Z,1.8
2018-04-22T00:26:17.459Z,1.8
2018-04-22T00:27:19.914Z,2.1
2018-04-22T00:28:22.349Z,2.3
2018-04-22T00:29:25.080Z,2.1
2018-04-22T00:30:27.516Z,2.2
2018-04-22T00:31:29.954Z,2.3
2018-04-22T00:32:32.389Z,1.8
2018-04-22T00:33:34.819Z,1.6
2018-04-22T00:34:37.334Z,1.7
2018-04-22T00:35:39.767Z,1.7
2018-04-22T00:36:42.195Z,2.3
2018-04-22T00:37:44.640Z,1.9
2018-04-22T00:38:47.073Z,2
2018-04-22T00:39:50.085Z,2.1
2018-04-22T00:40:53.099Z,1.9
2018-04-22T00:41:55.539Z,2
2018-04-22T00:42:58.132Z,1.9
2018-04-22T00:44:00.858Z,1.7
2018-04-22T00:45:03.292Z,1.6
2018-04-22T00:46:05.726Z,2
2018-04-22T00:47:08.174Z,2.3
2018-04-22T00:48:10.626Z,2.3
2018-04-22T00:49:13.218Z,2.2
2018-04-22T00:50:15.820Z,2.2
2018-04-22T00:51:18.308Z,2.1
2018-04-22T00:52:20.758Z,2
2018-04-22T00:53:23.504Z,1.9
2018-04-22T00:54:26.224Z,1.6
2018-04-22T00:55:29.041Z,1.9
2018-04-22T00:56:31.779Z,2.3
2018-04-22T00:57:34.209Z,1.9
2018-04-22T00:58:36.711Z,2.4
2018-04-22T00:59:39.214Z,2.3
2018-04-22T01:00:41.945Z,2.3
2018-04-22T01:01:44.368Z,2.1
2018-04-22T01:02:46.809Z,2.2
2018-04-22T01:03:49.253Z,2
2018-04-22T01:04:51.687Z,1.6
2018-04-22T01:05:54.195Z,1.7
2018-04-22T01:06:56.642Z,2.2
2018-04-22T01:07:59.074Z,2.4
2018-04-22T01:09:01.524Z,1.9
2018-04-22T01:10:03.958Z,2.1
2018-04-22T01:11:06.396Z,1.8
2018-04-22T01:12:08.838Z,2.3
2018-04-22T01:13:11.269Z,2.2
2018-04-22T01:14:13.817Z,2
2018-04-22T01:15:16.251Z,2.2
2018-04-22T01:16:18.743Z,2.2
2018-04-22T01:17:21.169Z,2
2018-04-22T01:18:23.603Z,1.8
2018-04-22T01:19:26.033Z,1.6
2018-04-22T01:20:28.767Z,1.9
2018-04-22T01:21:31.278Z,2.1
2018-04-22T01:22:33.989Z,2.4
2018-04-22T01:23:36.738Z,2.3
2018-04-22T01:24:39.468Z,2.4
2018-04-22T01:25:41.910Z,2.3
2018-04-22T01:26:44.343Z,1.7
2018-04-22T01:27:46.784Z,1.9
2018-04-22T01:28:49.803Z,1.9
2018-04-22T01:29:52.525Z,1.8
2018-04-22T01:30:54.965Z,1.9
2018-04-22T01:31:57.407Z,1.8
2018-04-22T01:32:59.839Z,1.5
2018-04-22T01:34:02.291Z,2.1
2018-04-22T01:35:04.998Z,2.1
2018-04-22T01:36:07.727Z,2.3
2018-04-22T01:37:10.165Z,1.9
2018-04-22T01:38:12.981Z,1.9
2018-04-22T01:39:15.707Z,1.9
2018-04-22T01:40:18.433Z,1.7
2018-04-22T01:41:20.895Z,2.4
2018-04-22T01:42:23.715Z,2.2
2018-04-22T01:43:26.157Z,1.8
2018-04-22T01:44:28.581Z,1.5
2018-04-22T01:45:31.592Z,1.5
2018-04-22T01:46:34.316Z,2.3
2018-04-22T01:47:36.750Z,1.6
2018-04-22T01:48:39.187Z,2.2
2018-04-22T01:49:41.621Z,2
2018-04-22T01:50:44.342Z,1.8
2018-04-22T01:51:46.786Z,1.7
2018-04-22T01:52:49.213Z,1.8
2018-04-22T01:53:51.648Z,2.3
2018-04-22T01:54:54.083Z,1.4
2018-04-22T01:55:56.523Z,1.6
2018-04-22T01:56:59.238Z,2.2
2018-04-22T01:58:01.675Z,2.2
2018-04-22T01:59:04.114Z,2.3
2018-04-22T02:00:06.549Z,2.1
2018-04-22T02:01:09.289Z,1.7
2018-04-22T02:02:11.999Z,1.8
2018-04-22T02:03:14.422Z,1.7
2018-04-22T02:04:17.156Z,1.5
2018-04-22T02:05:19.591Z,2.4
2018-04-22T02:06:22.026Z,1.9
2018-04-22T02:07:24.464Z,2
2018-04-22T02:08:26.888Z,2.1
2018-04-22T02:09:29.325Z,1.9
2018-04-22T02:10:32.163Z,1.7
2018-04-22T02:11:34.874Z,1.9
2018-04-22T02:12:37.698Z,1.6
2018-04-22T02:13:40.127Z,1.5
2018-04-22T02:14:42.560Z,2.1
2018-04-22T02:15:45.005Z,1.9
2018-04-22T02:16:47.741Z,1.7
2018-04-22T02:17:50.173Z,1.9
2018-04-22T02:18:52.619Z,1.9
2018-04-22T02:19:55.045Z,1.8
2018-04-22T02:20:57.481Z,1.8
2018-04-22T02:22:00.208Z,1.5
2018-04-22T02:23:02.920Z,1.6
2018-04-22T02:24:05.637Z,1.7
2018-04-22T02:25:08.083Z,2.1
2018-04-22T02:26:10.515Z,1.9
2018-04-22T02:27:12.960Z,2.3
2018-04-22T02:28:15.992Z,2.2
2018-04-22T02:29:18.818Z,2.1
2018-04-22T02:30:21.251Z,1.8
2018-04-22T02:31:23.700Z,1.8
2018-04-22T02:32:26.729Z,2
2018-04-22T02:33:29.574Z,1.8
2018-04-22T02:34:32.314Z,2
2018-04-22T02:35:35.143Z,2
2018-04-22T02:36:37.574Z,2.2
2018-04-22T02:37:40.016Z,1.5
2018-04-22T02:38:42.456Z,1.6
2018-04-22T02:39:45.175Z,1.5
2018-04-22T02:40:47.903Z,2.1
2018-04-22T02:41:50.645Z,2
2018-04-22T02:42:53.362Z,2.2
2018-04-22T02:43:56.086Z,2
2018-04-22T02:44:58.685Z,2.3
2018-04-22T02:46:01.128Z,2.3
2018-04-22T02:47:03.566Z,1.9
2018-04-22T02:48:06.296Z,1.9
2018-04-22T02:49:09.318Z,1.8
2018-04-22T02:50:11.759Z,2
2018-04-22T02:51:14.184Z,1.9
2018-04-22T02:52:16.626Z,1.5
2018-04-22T02:53:19.061Z,1.6
2018-04-22T02:54:21.501Z,1.9
2018-04-22T02:55:23.943Z,2.2
2018-04-22T02:56:26.375Z,1.8
2018-04-22T02:57:28.818Z,1.8
2018-04-22T02:58:31.641Z,2.6
2018-04-22T02:59:34.071Z,1.7
2018-04-22T03:00:36.812Z,1.7
2018-04-22T03:01:39.528Z,1.6
2018-04-22T03:02:41.960Z,2.2
2018-04-22T03:03:44.391Z,1.5
2018-04-22T03:04:46.834Z,2.1
2018-04-22T03:05:49.659Z,1.9
2018-04-22T03:06:52.106Z,2
2018-04-22T03:07:54.532Z,2
2018-04-22T03:08:56.981Z,2.5
2018-04-22T03:09:59.414Z,1.7
2018-04-22T03:11:01.854Z,1.6
2018-04-22T03:12:04.297Z,2.1
2018-04-22T03:13:06.736Z,2
2018-04-22T03:14:09.176Z,2
2018-04-22T03:15:11.627Z,1.9
2018-04-22T03:16:14.058Z,1.9
2018-04-22T03:17:16.494Z,1.9
2018-04-22T03:18:18.920Z,1.6
2018-04-22T03:19:21.357Z,1.9
2018-04-22T03:20:23.795Z,2.3
2018-04-22T03:21:26.230Z,2
2018-04-22T03:22:28.661Z,2.1
2018-04-22T03:23:31.100Z,1.7
2018-04-22T03:24:33.541Z,1.7
2018-04-22T03:25:36.266Z,1.7
2018-04-22T03:26:38.973Z,1.6
2018-04-22T03:27:41.701Z,2.3
2018-04-22T03:28:44.140Z,2.3
2018-04-22T03:29:46.577Z,2.1
2018-04-22T03:30:49.015Z,2.2
2018-04-22T03:31:51.741Z,1.8
2018-04-22T03:32:54.170Z,1.5
2018-04-22T03:33:56.615Z,1.9
2018-04-22T03:34:59.054Z,1.5
2018-04-22T03:36:01.487Z,1.6
2018-04-22T03:37:04.213Z,2.2
2018-04-22T03:38:06.649Z,2.2
2018-04-22T03:39:09.475Z,1.9
2018-04-22T03:40:12.216Z,2.1
2018-04-22T03:41:14.650Z,1.9
2018-04-22T03:42:17.379Z,2.1
2018-04-22T03:43:19.817Z,1.8
2018-04-22T03:44:22.638Z,1.7
2018-04-22T03:45:25.354Z,1.8
2018-04-22T03:46:28.175Z,1.8
2018-04-22T03:47:30.608Z,1.8
2018-04-22T03:48:33.062Z,1.5
2018-04-22T03:49:35.777Z,1.5
2018-04-22T03:50:38.595Z,2.1
2018-04-22T03:51:41.423Z,1.9
2018-04-22T03:52:43.856Z,2.4
2018-04-22T03:53:46.292Z,2.1
2018-04-22T03:54:49.014Z,1.9
2018-04-22T03:55:51.731Z,2.3
2018-04-22T03:56:54.164Z,2.1
2018-04-22T03:57:56.604Z,1.7
2018-04-22T03:58:59.037Z,1.7
2018-04-22T04:00:01.465Z,1.6
2018-04-22T04:01:04.212Z,2.4
2018-04-22T04:02:06.653Z,2.2
2018-04-22T04:03:09.088Z,1.9
2018-04-22T04:04:11.529Z,2.1
2018-04-22T04:05:13.960Z,2
2018-04-22T04:06:16.389Z,1.8
2018-04-22T04:07:19.127Z,2.1
2018-04-22T04:08:21.968Z,1.8
2018-04-22T04:09:24.685Z,1.6
2018-04-22T04:10:27.122Z,1.7
2018-04-22T04:11:29.845Z,1.6
2018-04-22T04:12:32.674Z,2.2
2018-04-22T04:13:35.108Z,2.1
2018-04-22T04:14:37.532Z,1.9
2018-04-22T04:15:39.971Z,2.1
2018-04-22T04:16:42.402Z,2.2
2018-04-22T04:17:45.121Z,1.8
2018-04-22T04:18:47.562Z,1.9
2018-04-22T04:19:49.996Z,1.7
2018-04-22T04:20:52.433Z,1.6
2018-04-22T04:21:54.881Z,1.6
2018-04-22T04:22:57.321Z,2
2018-04-22T04:23:59.745Z,2
2018-04-22T04:25:02.187Z,2
2018-04-22T04:26:04.625Z,2
2018-04-22T04:27:07.057Z,1.8
2018-04-22T04:28:09.492Z,1.6
2018-04-22T04:29:11.928Z,1.5
2018-04-22T04:30:14.759Z,1.7
2018-04-22T04:31:17.476Z,2.2
2018-04-22T04:32:19.919Z,2.2
2018-04-22T04:33:22.341Z,2
2018-04-22T04:34:25.075Z,2
2018-04-22T04:35:27.790Z,2
2018-04-22T04:36:30.226Z,1.8
2018-04-22T04:37:32.654Z,2.1
2018-04-22T04:38:35.095Z,1.5
2018-04-22T04:39:37.524Z,1.5
2018-04-22T04:40:39.963Z,2.4
2018-04-22T04:41:42.684Z,2.1
2018-04-22T04:42:45.120Z,2
2018-04-22T04:43:47.838Z,2
2018-04-22T04:44:50.279Z,2
2018-04-22T04:45:52.997Z,1.8
2018-04-22T04:46:55.441Z,1.7
2018-04-22T04:47:58.154Z,1.6
2018-04-22T04:49:00.887Z,2.2
2018-04-22T04:50:03.912Z,1.6
2018-04-22T04:51:06.344Z,2.1
2018-04-22T04:52:08.772Z,1.7
2018-04-22T04:53:11.214Z,2.1
2018-04-22T04:54:13.646Z,2.1
2018-04-22T04:55:16.074Z,2
2018-04-22T04:56:18.508Z,2.2
2018-04-22T04:57:20.953Z,1.6
2018-04-22T04:58:23.678Z,1.8
2018-04-22T04:59:26.403Z,1.7
2018-04-22T05:00:28.844Z,2.2
2018-04-22T05:01:31.284Z,2.3
2018-04-22T05:02:33.723Z,2.3
2018-04-22T05:03:36.164Z,2
2018-04-22T05:04:38.880Z,2.5
2018-04-22T05:05:41.325Z,2
2018-04-22T05:06:43.760Z,1.6
2018-04-22T05:07:46.191Z,2.2
2018-04-22T05:08:48.628Z,1.7
2018-04-22T05:09:51.440Z,2.1
2018-04-22T05:10:53.867Z,2.2
2018-04-22T05:11:56.703Z,2.2
2018-04-22T05:12:59.130Z,2.1
2018-04-22T05:14:01.569Z,1.8
2018-04-22T05:15:04.011Z,1.9
2018-04-22T05:16:06.438Z,1.8
2018-04-22T05:17:08.883Z,1.6
2018-04-22T05:18:11.619Z,1.8
2018-04-22T05:19:14.627Z,2.2
2018-04-22T05:20:17.071Z,2
2018-04-22T05:21:19.499Z,2.1
2018-04-22T05:22:21.934Z,1.9
2018-04-22T05:23:24.372Z,2.1
2018-04-22T05:24:26.808Z,1.7
2018-04-22T05:25:29.253Z,1.7
2018-04-22T05:26:31.689Z,1.6
2018-04-22T05:27:34.126Z,2
2018-04-22T05:28:36.566Z,2.1
2018-04-22T05:29:39.288Z,2.1
2018-04-22T05:30:41.724Z,2.4
2018-04-22T05:31:44.200Z,1.8
2018-04-22T05:32:46.931Z,2.1
2018-04-22T05:33:49.661Z,1.9
2018-04-22T05:34:52.098Z,1.9
2018-04-22T05:35:54.527Z,2.1
2018-04-22T05:36:56.954Z,2.3
2018-04-22T05:37:59.686Z,2.3
2018-04-22T05:39:02.120Z,2.3
2018-04-22T05:40:04.554Z,2.8
2018-04-22T05:41:06.990Z,2
2018-04-22T05:42:10.003Z,1.9
2018-04-22T05:43:12.443Z,1.8
2018-04-22T05:44:14.875Z,1.9
2018-04-22T05:45:17.315Z,1.9
2018-04-22T05:46:20.060Z,2.2
2018-04-22T05:47:22.491Z,2
2018-04-22T05:48:24.926Z,2.2
2018-04-22T05:49:27.742Z,2
2018-04-22T05:50:30.174Z,2.1
2018-04-22T05:51:32.607Z,2
2018-04-22T05:52:35.051Z,1.9
2018-04-22T05:53:37.487Z,1.9
2018-04-22T05:54:39.917Z,2.6
2018-04-22T05:55:42.648Z,2.3
2018-04-22T05:56:45.158Z,2.3
2018-04-22T05:57:47.617Z,2.4
2018-04-22T05:58:50.317Z,1.8
2018-04-22T05:59:52.757Z,2
2018-04-22T06:00:55.184Z,1.8
2018-04-22T06:01:57.628Z,2.3
2018-04-22T06:03:00.063Z,2.2
2018-04-22T06:04:02.494Z,2.4
2018-04-22T06:05:04.936Z,2.4
2018-04-22T06:06:08.228Z,2.4
2018-04-22T06:07:10.668Z,2.5
2018-04-22T06:08:13.104Z,2.3
2018-04-22T06:09:16.217Z,2
2018-04-22T06:10:18.647Z,2.1
2018-04-22T06:11:21.093Z,2.2
2018-04-22T06:12:23.813Z,2.1
2018-04-22T06:13:26.245Z,2.2
2018-04-22T06:14:28.683Z,2.5
2018-04-22T06:15:31.125Z,2.5
2018-04-22T06:16:33.853Z,2.4
2018-04-22T06:17:36.297Z,2.1
2018-04-22T06:18:38.737Z,2.4
2018-04-22T06:19:41.171Z,2.3
2018-04-22T06:20:43.615Z,1.9
2018-04-22T06:21:46.067Z,2.5
2018-04-22T06:22:49.246Z,2.4
2018-04-22T06:23:51.653Z,2.6
2018-04-22T06:24:54.091Z,2.7
2018-04-22T06:25:57.109Z,2.6
2018-04-22T06:26:59.543Z,2.4
2018-04-22T06:28:02.285Z,2.1
2018-04-22T06:29:04.706Z,1.9
2018-04-22T06:30:07.144Z,1.9
2018-04-22T06:31:09.971Z,2.2
2018-04-22T06:32:12.409Z,2.4
2018-04-22T06:33:14.857Z,2.7
2018-04-22T06:34:17.604Z,2.4
2018-04-22T06:35:20.044Z,2.5
2018-04-22T06:36:22.487Z,2.5
2018-04-22T06:37:24.927Z,2
2018-04-22T06:38:27.356Z,2.1
2018-04-22T06:39:29.802Z,1.9
2018-04-22T06:40:32.824Z,2.4
2018-04-22T06:41:35.267Z,2.6
2018-04-22T06:42:37.738Z,2.5
2018-04-22T06:43:40.483Z,2.3
2018-04-22T06:44:43.624Z,2.7
2018-04-22T06:45:46.080Z,2.6
2018-04-22T06:46:48.514Z,2.7
2018-04-22T06:47:50.960Z,2.3
2018-04-22T06:48:53.710Z,2.3
2018-04-22T06:49:56.146Z,2.1
2018-04-22T06:50:58.599Z,2.6
2018-04-22T06:52:01.343Z,2.5
2018-04-22T06:53:03.825Z,2.9
2018-04-22T06:54:06.522Z,2.2
2018-04-22T06:55:08.957Z,2.4
2018-04-22T06:56:11.392Z,2.4
2018-04-22T06:57:13.829Z,2.6
2018-04-22T06:58:16.261Z,2.2
2018-04-22T06:59:18.706Z,2.7
2018-04-22T07:00:22.107Z,2.5
2018-04-22T07:01:24.546Z,2.7
2018-04-22T07:02:26.987Z,2.6
2018-04-22T07:03:29.815Z,2.6
2018-04-22T07:04:32.539Z,2.3
2018-04-22T07:05:34.986Z,2.6
2018-04-22T07:06:37.424Z,2.3
2018-04-22T07:07:40.161Z,2.2
2018-04-22T07:08:42.601Z,2
2018-04-22T07:09:45.045Z,2.2
2018-04-22T07:10:47.789Z,2.6
2018-04-22T07:11:50.221Z,2.8
2018-04-22T07:12:52.950Z,2.8
2018-04-22T07:13:55.678Z,3.2
2018-04-22T07:14:58.400Z,2.6
2018-04-22T07:16:00.842Z,2.5
2018-04-22T07:17:03.288Z,2.6
2018-04-22T07:18:05.728Z,2.3
2018-04-22T07:19:08.169Z,2.6
2018-04-22T07:20:10.620Z,2.7
2018-04-22T07:21:13.059Z,2.8
2018-04-22T07:22:15.889Z,2.6
2018-04-22T07:23:18.332Z,3.1
2018-04-22T07:24:20.774Z,2.8
2018-04-22T07:25:23.526Z,3.5
2018-04-22T07:26:25.965Z,2.4
2018-04-22T07:27:28.697Z,2.7
2018-04-22T07:28:31.143Z,3.1
2018-04-22T07:29:33.583Z,2.7
2018-04-22T07:30:36.320Z,3.2
2018-04-22T07:31:39.340Z,2.5
2018-04-22T07:32:41.783Z,3.1
2018-04-22T07:33:44.233Z,2.9
2018-04-22T07:34:47.334Z,2.7
2018-04-22T07:35:49.799Z,3
2018-04-22T07:36:52.529Z,3
2018-04-22T07:37:54.979Z,3.2
2018-04-22T07:38:57.420Z,3
2018-04-22T07:39:59.874Z,3.1
2018-04-22T07:41:02.313Z,3.4
2018-04-22T07:42:04.763Z,2.9
2018-04-22T07:43:07.215Z,3
2018-04-22T07:44:09.650Z,2.9
2018-04-22T07:45:12.106Z,3.2
2018-04-22T07:46:14.551Z,2.9
2018-04-22T07:47:17.003Z,3.2
2018-04-22T07:48:19.446Z,3.3
2018-04-22T07:49:22.554Z,2.9
2018-04-22T07:50:24.996Z,3.2
2018-04-22T07:51:27.448Z,3.2
2018-04-22T07:52:29.885Z,2.9
2018-04-22T07:53:32.329Z,3.3
2018-04-22T07:54:34.779Z,3.1
2018-04-22T07:55:37.222Z,3
2018-04-22T07:56:39.680Z,3.1
2018-04-22T07:57:42.128Z,2.9
2018-04-22T07:58:44.875Z,3.7
2018-04-22T07:59:47.328Z,3.2
2018-04-22T08:00:49.769Z,3.3
2018-04-22T08:01:52.213Z,3.2
2018-04-22T08:02:54.974Z,3.2
2018-04-22T08:03:57.424Z,3.2
2018-04-22T08:05:00.147Z,3.1
2018-04-22T08:06:02.882Z,3.1
2018-04-22T08:07:05.324Z,3.4
2018-04-22T08:08:07.773Z,3.1
2018-04-22T08:09:10.217Z,3.4
2018-04-22T08:10:12.943Z,3.3
2018-04-22T08:11:15.389Z,3.3
2018-04-22T08:12:17.840Z,3.3
2018-04-22T08:13:20.283Z,3.2
2018-04-22T08:14:22.736Z,3.5
2018-04-22T08:15:25.172Z,3.8
2018-04-22T08:16:27.611Z,3.2
2018-04-22T08:17:30.072Z,3.3
2018-04-22T08:18:32.795Z,3.3
2018-04-22T08:19:35.914Z,4.1
2018-04-22T08:20:38.362Z,4.1
2018-04-22T08:21:40.811Z,3.2
2018-04-22T08:22:43.246Z,3.7
2018-04-22T08:23:45.691Z,3.5
2018-04-22T08:24:48.728Z,3
2018-04-22T08:25:51.163Z,3.3
2018-04-22T08:26:53.612Z,3.3
2018-04-22T08:27:56.734Z,3.2
2018-04-22T08:28:59.178Z,3.7
2018-04-22T08:30:01.929Z,3.5
2018-04-22T08:31:04.683Z,3.8
2018-04-22T08:32:07.125Z,3.4
2018-04-22T08:33:09.867Z,3.8
2018-04-22T08:34:12.599Z,3.7
2018-04-22T08:35:15.053Z,3.5
2018-04-22T08:36:17.886Z,3.5
2018-04-22T08:37:20.334Z,3.5
2018-04-22T08:38:22.781Z,3.8
2018-04-22T08:39:25.233Z,3.9
2018-04-22T08:40:27.683Z,3.7
2018-04-22T08:41:30.142Z,3.8
2018-04-22T08:42:32.579Z,4.1
2018-04-22T08:43:35.035Z,4
2018-04-22T08:44:37.478Z,3.8
2018-04-22T08:45:39.922Z,4.1
2018-04-22T08:46:42.378Z,3.7
2018-04-22T08:47:44.821Z,4
2018-04-22T08:48:47.269Z,4
2018-04-22T08:49:49.717Z,4.1
2018-04-22T08:50:52.173Z,4.1
2018-04-22T08:51:54.616Z,4.4
2018-04-22T08:52:57.067Z,4.1
2018-04-22T08:53:59.519Z,4.2
2018-04-22T08:55:02.537Z,4.1
2018-04-22T08:56:04.993Z,4.3
2018-04-22T08:57:07.440Z,4.4
2018-04-22T08:58:09.880Z,4.1
2018-04-22T08:59:12.335Z,4
2018-04-22T09:00:14.787Z,4.6
2018-04-22T09:01:17.519Z,4.2
2018-04-22T09:02:19.975Z,4.5
2018-04-22T09:03:22.424Z,4.6
2018-04-22T09:04:24.870Z,4.5
2018-04-22T09:05:27.659Z,4.8
2018-04-22T09:06:30.105Z,4.6
2018-04-22T09:07:32.566Z,4.8
2018-04-22T09:08:35.018Z,4.7
2018-04-22T09:09:37.475Z,4.4
2018-04-22T09:10:43.274Z,4.9
2018-04-22T09:11:45.737Z,4.5
2018-04-22T09:12:48.470Z,4.7
2018-04-22T09:13:50.940Z,4.8
2018-04-22T09:14:53.387Z,4.6
2018-04-22T09:15:56.154Z,4.7
2018-04-22T09:16:58.612Z,4.8
2018-04-22T09:18:01.262Z,5.4
2018-04-22T09:19:03.718Z,4.7
2018-04-22T09:20:06.199Z,4.9
2018-04-22T09:21:09.041Z,5.1
2018-04-22T09:22:11.489Z,5
2018-04-22T09:23:13.939Z,5.1
2018-04-22T09:24:16.407Z,4.9
2018-04-22T09:25:19.133Z,5.1
2018-04-22T09:26:21.532Z,5.6
2018-04-22T09:27:23.953Z,5
2018-04-22T09:28:26.354Z,5.4
2018-04-22T09:29:28.761Z,5.4
2018-04-22T09:30:31.171Z,5.3
2018-04-22T09:31:33.578Z,5.3
2018-04-22T09:32:35.976Z,5.5
2018-04-22T09:33:38.674Z,5.5
2018-04-22T09:34:41.071Z,5.2
2018-04-22T09:35:43.477Z,5.8
2018-04-22T09:36:45.879Z,5.5
2018-04-22T09:37:49.257Z,5.3
2018-04-22T09:38:51.957Z,6
2018-04-22T09:39:54.371Z,6.1
2018-04-22T09:40:56.767Z,5.8
2018-04-22T09:41:59.178Z,5.8
2018-04-22T09:43:01.589Z,5.6
2018-04-22T09:44:04.036Z,6
2018-04-22T09:45:06.394Z,5.5
2018-04-22T09:46:09.083Z,5.7
2018-04-22T09:47:11.487Z,6.2
2018-04-22T09:48:13.897Z,5.8
2018-04-22T09:49:16.293Z,6.3
2018-04-22T09:50:18.704Z,6
2018-04-22T09:51:21.402Z,6
2018-04-22T09:52:23.812Z,6.1
2018-04-22T09:53:26.241Z,6.4
2018-04-22T09:54:28.631Z,6
2018-04-22T09:55:31.026Z,6.2
2018-04-22T09:56:33.716Z,6.3
2018-04-22T09:57:36.127Z,6.5
2018-04-22T09:58:38.528Z,7.3
2018-04-22T09:59:40.930Z,6.2
2018-04-22T10:00:43.329Z,6.7
2018-04-22T10:01:45.729Z,6.2
2018-04-22T10:02:48.437Z,6.7
2018-04-22T10:03:50.837Z,6.3
2018-04-22T10:04:53.993Z,6.2
2018-04-22T10:05:56.370Z,6.4
2018-04-22T10:06:59.438Z,6.3
2018-04-22T10:08:01.845Z,6.6
2018-04-22T10:09:04.561Z,6.4
2018-04-22T10:10:06.964Z,6.6
2018-04-22T10:11:09.374Z,6.8
2018-04-22T10:12:11.775Z,6.6
2018-04-22T10:13:14.172Z,6.9
2018-04-22T10:14:16.888Z,6.6
2018-04-22T10:15:19.284Z,6.8
2018-04-22T10:16:21.969Z,7.3
2018-04-22T10:17:24.383Z,6.8
2018-04-22T10:18:26.788Z,6.8
2018-04-22T10:19:29.196Z,6.9
2018-04-22T10:20:31.877Z,7
2018-04-22T10:21:34.681Z,7
2018-04-22T10:22:37.663Z,7
2018-04-22T10:23:40.639Z,6.7
2018-04-22T10:24:43.048Z,7.4
2018-04-22T10:25:45.738Z,7.3
2018-04-22T10:26:48.140Z,7.6
2018-04-22T10:27:50.551Z,7.4
2018-04-22T10:28:52.951Z,7.2
2018-04-22T10:29:55.741Z,7
2018-04-22T10:30:58.153Z,7.2
2018-04-22T10:32:00.556Z,7.2
2018-04-22T10:33:03.243Z,7.1
2018-04-22T10:34:05.648Z,7.1
2018-04-22T10:35:08.335Z,7.3
2018-04-22T10:36:11.081Z,7.2
2018-04-22T10:37:13.458Z,7.5
2018-04-22T10:38:15.859Z,7.6
2018-04-22T10:39:18.552Z,7.2
2018-04-22T10:40:20.959Z,7.2
2018-04-22T10:41:23.369Z,7.5
2018-04-22T10:42:26.356Z,7.5
2018-04-22T10:43:29.044Z,7.4
2018-04-22T10:44:32.116Z,7.4
2018-04-22T10:45:34.534Z,7.4
2018-04-22T10:46:36.931Z,7.4
2018-04-22T10:47:39.335Z,7.3
2018-04-22T10:48:42.298Z,7.5
2018-04-22T10:49:44.989Z,7.3
2018-04-22T10:50:47.396Z,7.8
2018-04-22T10:51:50.383Z,7.8
2018-04-22T10:52:52.791Z,7.3
2018-04-22T10:53:55.496Z,7.5
2018-04-22T10:54:58.565Z,7.6
2018-04-22T10:56:00.974Z,7.5
2018-04-22T10:57:03.670Z,7.4
2018-04-22T10:58:06.616Z,7.5
2018-04-22T10:59:08.941Z,7.4
2018-04-22T11:00:11.287Z,7.5
2018-04-22T11:01:13.972Z,7.9
2018-04-22T11:02:16.675Z,7.8
2018-04-22T11:03:19.638Z,7.7
2018-04-22T11:04:22.321Z,7.6
2018-04-22T11:05:24.734Z,7.5
2018-04-22T11:06:27.127Z,7.4
2018-04-22T11:07:29.538Z,7.6
2018-04-22T11:08:32.245Z,7.4
2018-04-22T11:09:34.646Z,7.9
2018-04-22T11:10:37.049Z,8
2018-04-22T11:11:39.849Z,7.8
2018-04-22T11:12:42.633Z,7.4
2018-04-22T11:13:45.053Z,7.4
2018-04-22T11:14:47.459Z,7.4
2018-04-22T11:15:49.871Z,8.2
2018-04-22T11:16:52.558Z,7.6
2018-04-22T11:17:54.964Z,7.5
2018-04-22T11:18:57.369Z,7.7
2018-04-22T11:19:59.776Z,7.4
2018-04-22T11:21:02.476Z,7.7
2018-04-22T11:22:04.901Z,7.4
2018-04-22T11:23:07.289Z,7.4
2018-04-22T11:24:09.697Z,7.5
2018-04-22T11:25:12.394Z,7.6
2018-04-22T11:26:15.072Z,7.8
2018-04-22T11:27:17.485Z,7.5
2018-04-22T11:28:20.178Z,7.7
2018-04-22T11:29:22.590Z,7.4
2018-04-22T11:30:25.578Z,7.4
2018-04-22T11:31:27.983Z,7.9
2018-04-22T11:32:30.384Z,7.6
2018-04-22T11:33:37.514Z,7.5
2018-04-22T11:34:41.111Z,7.9
2018-04-22T11:35:44.409Z,7.8
2018-04-22T11:36:48.494Z,7.4
2018-04-22T11:37:51.492Z,7.9
2018-04-22T11:38:54.217Z,7.6
2018-04-22T11:39:57.486Z,7.5
2018-04-22T11:41:00.472Z,7.4
2018-04-22T11:42:03.292Z,7.5
2018-04-22T11:43:06.317Z,7.5
2018-04-22T11:44:09.032Z,7.4
2018-04-22T11:45:12.105Z,7.6
2018-04-22T11:46:15.119Z,7.6
2018-04-22T11:47:18.139Z,7.5
2018-04-22T11:48:22.120Z,7.5
2018-04-22T11:49:25.684Z,7.9
2018-04-22T11:50:29.064Z,7.7
2018-04-22T11:51:31.776Z,7.7
2018-04-22T11:52:34.674Z,8.1
2018-04-22T11:53:37.818Z,7.9
2018-04-22T11:54:40.677Z,7.6
2018-04-22T11:55:43.718Z,8
2018-04-22T11:56:47.595Z,8
2018-04-22T11:57:51.465Z,7.7
2018-04-22T11:59:07.857Z,8
2018-04-22T12:00:11.281Z,7.9
2018-04-22T12:01:14.495Z,8.1
2018-04-22T12:02:17.799Z,7.8
2018-04-22T12:03:21.081Z,7.8
2018-04-22T12:04:24.241Z,8.1
2018-04-22T12:05:27.318Z,7.9
2018-04-22T12:06:30.631Z,8.1
2018-04-22T12:07:36.331Z,7.8
2018-04-22T12:08:39.202Z,7.8
2018-04-22T12:09:44.037Z,7.7
2018-04-22T12:10:49.917Z,7.6
2018-04-22T12:11:55.040Z,7.9
2018-04-22T12:12:58.804Z,8
2018-04-22T12:14:03.304Z,7.9
2018-04-22T12:15:06.400Z,8
2018-04-22T12:16:09.572Z,7.9
2018-04-22T12:17:12.526Z,8
2018-04-22T12:18:15.430Z,7.7
2018-04-22T12:19:20.232Z,7.9
2018-04-22T12:20:23.413Z,7.9
2018-04-22T12:21:26.684Z,8
2018-04-22T12:22:30.877Z,8
2018-04-22T12:23:34.124Z,8.2
2018-04-22T12:24:37.445Z,7.9
2018-04-22T12:25:40.994Z,7.9
2018-04-22T12:26:44.170Z,7.8
2018-04-22T12:27:47.035Z,8
2018-04-22T12:28:50.615Z,8
2018-04-22T12:29:53.938Z,8
2018-04-22T12:30:57.095Z,8
2018-04-22T12:32:00.467Z,8.1
2018-04-22T12:33:03.595Z,7.9
2018-04-22T12:34:07.001Z,8
2018-04-22T12:35:10.103Z,8
2018-04-22T12:36:13.285Z,8.1
2018-04-22T12:37:16.402Z,8.1
2018-04-22T12:38:19.139Z,8.1
2018-04-22T12:39:22.500Z,8
2018-04-22T12:40:25.364Z,8
2018-04-22T12:41:28.299Z,8.1
2018-04-22T12:42:30.777Z,8
2018-04-22T12:43:33.639Z,8.3
2018-04-22T12:44:36.847Z,8
2018-04-22T12:45:41.251Z,8
2018-04-22T12:46:44.098Z,7.9
2018-04-22T12:47:47.321Z,8
2018-04-22T12:48:50.196Z,8.4
2018-04-22T12:49:53.001Z,8
2018-04-22T12:50:56.217Z,8
2018-04-22T12:51:59.160Z,8
2018-04-22T12:53:02.104Z,8
2018-04-22T12:54:05.003Z,7.9
2018-04-22T12:55:07.704Z,8
2018-04-22T12:56:10.559Z,8
2018-04-22T12:57:13.064Z,7.9
2018-04-22T12:58:15.683Z,7.8
2018-04-22T12:59:20.732Z,8
2018-04-22T13:00:23.282Z,7.8
2018-04-22T13:01:25.931Z,7.8
2018-04-22T13:02:28.522Z,7.7
2018-04-22T13:03:31.306Z,7.9
2018-04-22T13:04:33.770Z,7.9
2018-04-22T13:05:36.387Z,7.9
2018-04-22T13:06:38.875Z,7.9
2018-04-22T13:07:41.338Z,7.7
2018-04-22T13:08:43.800Z,7.6
2018-04-22T13:09:46.255Z,7.7
2018-04-22T13:10:48.717Z,7.7
2018-04-22T13:11:51.482Z,7.7
2018-04-22T13:12:54.221Z,7.7
2018-04-22T13:13:56.686Z,7.8
2018-04-22T13:14:59.166Z,7.9
2018-04-22T13:16:02.259Z,7.9
2018-04-22T13:17:04.751Z,7.5
2018-04-22T13:18:07.222Z,7.9
2018-04-22T13:19:09.683Z,7.8
2018-04-22T13:20:12.249Z,7.7
2018-04-22T13:21:15.093Z,7.7
2018-04-22T13:22:17.576Z,7.7
2018-04-22T13:23:20.435Z,7.7
2018-04-22T13:24:23.196Z,7.7
2018-04-22T13:25:25.943Z,7.6
2018-04-22T13:26:28.401Z,8
2018-04-22T13:27:31.001Z,7.7
2018-04-22T13:28:33.779Z,7.7
2018-04-22T13:29:36.238Z,7.7
2018-04-22T13:30:39.491Z,7.8
2018-04-22T13:31:42.403Z,7.6
2018-04-22T13:32:44.843Z,7.7
2018-04-22T13:33:47.599Z,7.8
2018-04-22T13:34:50.384Z,7.6
2018-04-22T13:35:52.857Z,7.5
2018-04-22T13:36:55.613Z,7.6
2018-04-22T13:37:58.068Z,7.6
2018-04-22T13:39:00.883Z,7.3
2018-04-22T13:40:04.382Z,7.6
2018-04-22T13:41:06.846Z,7.5
2018-04-22T13:42:09.360Z,7.3
2018-04-22T13:43:12.116Z,7.9
2018-04-22T13:44:14.577Z,7.4
2018-04-22T13:45:17.060Z,7.4
2018-04-22T13:46:19.803Z,7.6
2018-04-22T13:47:22.266Z,7.5
2018-04-22T13:48:25.044Z,7.4
2018-04-22T13:49:28.214Z,7.3
2018-04-22T13:50:30.666Z,7.4
2018-04-22T13:51:33.137Z,7.2
2018-04-22T13:52:35.598Z,7.3
2018-04-22T13:53:40.141Z,7.2
2018-04-22T13:54:42.979Z,7.4
2018-04-22T13:55:45.447Z,7.1
2018-04-22T13:56:47.908Z,7.3
2018-04-22T13:57:50.374Z,7.5
2018-04-22T13:58:53.126Z,7.1
2018-04-22T13:59:55.593Z,7.4
2018-04-22T14:00:58.049Z,7.4
2018-04-22T14:02:00.525Z,7.4
2018-04-22T14:03:03.286Z,7.6
2018-04-22T14:04:06.037Z,7.3
2018-04-22T14:05:08.501Z,7.6
2018-04-22T14:06:10.976Z,7.6
2018-04-22T14:07:13.441Z,7.4
2018-04-22T14:08:15.916Z,7.5
2018-04-22T14:09:18.682Z,7.6
2018-04-22T14:10:21.147Z,7.4
2018-04-22T14:11:23.617Z,7.5
2018-04-22T14:12:26.078Z,7.4
2018-04-22T14:13:28.536Z,7.4
2018-04-22T14:14:30.997Z,7.7
2018-04-22T14:15:33.457Z,7.6
2018-04-22T14:16:36.222Z,7.7
2018-04-22T14:17:38.681Z,7.4
2018-04-22T14:18:41.144Z,7.6
2018-04-22T14:19:43.611Z,7.8
2018-04-22T14:20:46.071Z,7.8
2018-04-22T14:21:49.112Z,7.8
2018-04-22T14:22:51.574Z,7.5
2018-04-22T14:23:54.042Z,7.5
2018-04-22T14:24:56.508Z,7.6
2018-04-22T14:25:58.964Z,7.6
2018-04-22T14:27:01.439Z,7.7
2018-04-22T14:28:03.899Z,7.6
2018-04-22T14:29:06.650Z,7.6
2018-04-22T14:30:09.120Z,7.7